sensor_id;sensor_type;location;lat;lon;timestamp;pressure;altitude;pressure_sealevel;temperature;humidity
62150;BME280;48134;53.586;10.610;2022-09-09T00:00:24;100217.72;;;13.65;100.00
62150;BME280;48134;53.586;10.610;2022-09-09T00:03:02;100207.47;;;13.71;100.00
62150;BME280;48134;53.586;10.610;2022-09-09T00:05:42;100198.59;;;13.65;100.00
62150;BME280;48134;53.586;10.610;2022-09-09T00:08:19;100200.66;;;13.59;100.00
62150;BME280;48134;53.586;10.610;2022-09-09T00:10:58;100195.06;;;13.65;100.00
62150;BME280;48134;53.586;10.610;2022-09-09T00:13:37;100194.53;;;13.63;100.00
62150;BME280;48134;53.586;10.610;2022-09-09T00:16:17;100200.69;;;13.68;100.00
62150;BME280;48134;53.586;10.610;2022-09-09T00:18:54;100196.53;;;13.71;100.00
62150;BME280;48134;53.586;10.610;2022-09-09T00:21:28;100165.84;;;13.51;100.00
62150;BME280;48134;53.586;10.610;2022-09-09T00:24:04;100199.56;;;13.69;100.00
62150;BME280;48134;53.586;10.610;2022-09-09T00:26:45;100194.75;;;13.66;100.00
62150;BME280;48134;53.586;10.610;2022-09-09T00:29:25;100193.31;;;13.69;100.00
62150;BME280;48134;53.586;10.610;2022-09-09T00:32:12;100200.38;;;13.70;100.00
62150;BME280;48134;53.586;10.610;2022-09-09T00:34:49;100191.69;;;13.68;100.00
62150;BME280;48134;53.586;10.610;2022-09-09T00:37:24;100183.81;;;13.66;100.00
62150;BME280;48134;53.586;10.610;2022-09-09T00:40:01;100200.00;;;13.63;100.00
62150;BME280;48134;53.586;10.610;2022-09-09T00:42:41;100190.69;;;13.64;100.00
62150;BME280;48134;53.586;10.610;2022-09-09T00:45:30;100192.56;;;13.54;100.00
62150;BME280;48134;53.586;10.610;2022-09-09T00:48:10;100178.72;;;13.51;100.00
62150;BME280;48134;53.586;10.610;2022-09-09T00:50:48;100191.50;;;13.64;100.00
62150;BME280;48134;53.586;10.610;2022-09-09T00:53:32;100187.59;;;13.56;100.00
62150;BME280;48134;53.586;10.610;2022-09-09T00:56:13;100172.00;;;13.57;100.00
62150;BME280;48134;53.586;10.610;2022-09-09T00:58:51;100191.66;;;13.59;100.00
62150;BME280;48134;53.586;10.610;2022-09-09T01:01:27;100187.59;;;13.56;100.00
62150;BME280;48134;53.586;10.610;2022-09-09T01:04:04;100187.78;;;13.60;100.00
62150;BME280;48134;53.586;10.610;2022-09-09T01:06:37;100180.19;;;13.57;100.00
62150;BME280;48134;53.586;10.610;2022-09-09T01:09:15;100183.72;;;13.57;100.00
62150;BME280;48134;53.586;10.610;2022-09-09T01:11:57;100188.41;;;13.57;100.00
62150;BME280;48134;53.586;10.610;2022-09-09T01:14:41;100181.06;;;13.66;100.00
62150;BME280;48134;53.586;10.610;2022-09-09T01:17:20;100186.53;;;13.66;100.00
62150;BME280;48134;53.586;10.610;2022-09-09T01:20:07;100177.50;;;13.66;100.00
62150;BME280;48134;53.586;10.610;2022-09-09T01:23:05;100180.56;;;13.64;100.00
62150;BME280;48134;53.586;10.610;2022-09-09T01:26:12;100181.38;;;13.65;100.00
62150;BME280;48134;53.586;10.610;2022-09-09T01:28:48;100172.22;;;13.69;100.00
62150;BME280;48134;53.586;10.610;2022-09-09T01:31:34;100173.78;;;13.61;100.00
62150;BME280;48134;53.586;10.610;2022-09-09T01:34:11;100172.69;;;13.63;100.00
62150;BME280;48134;53.586;10.610;2022-09-09T01:36:48;100167.84;;;13.59;100.00
62150;BME280;48134;53.586;10.610;2022-09-09T01:39:24;100173.00;;;13.61;100.00
62150;BME280;48134;53.586;10.610;2022-09-09T01:42:05;100170.75;;;13.63;100.00
62150;BME280;48134;53.586;10.610;2022-09-09T01:44:40;100171.25;;;13.65;100.00
62150;BME280;48134;53.586;10.610;2022-09-09T01:47:08;100171.81;;;13.53;100.00
62150;BME280;48134;53.586;10.610;2022-09-09T01:50:17;100171.97;;;13.48;100.00
62150;BME280;48134;53.586;10.610;2022-09-09T01:52:55;100176.78;;;13.51;100.00
62150;BME280;48134;53.586;10.610;2022-09-09T01:55:33;100167.78;;;13.51;100.00
62150;BME280;48134;53.586;10.610;2022-09-09T01:58:28;100170.53;;;13.51;100.00
62150;BME280;48134;53.586;10.610;2022-09-09T02:01:08;100164.66;;;13.43;100.00
62150;BME280;48134;53.586;10.610;2022-09-09T02:03:51;100165.00;;;13.42;100.00
62150;BME280;48134;53.586;10.610;2022-09-09T02:06:27;100173.03;;;13.38;100.00
62150;BME280;48134;53.586;10.610;2022-09-09T02:09:11;100172.31;;;13.33;100.00
62150;BME280;48134;53.586;10.610;2022-09-09T02:11:47;100172.19;;;13.38;100.00
62150;BME280;48134;53.586;10.610;2022-09-09T02:14:30;100172.00;;;13.34;100.00
62150;BME280;48134;53.586;10.610;2022-09-09T02:17:07;100173.91;;;13.34;100.00
62150;BME280;48134;53.586;10.610;2022-09-09T02:20:02;100172.50;;;13.36;100.00
62150;BME280;48134;53.586;10.610;2022-09-09T02:22:50;100173.38;;;13.46;100.00
62150;BME280;48134;53.586;10.610;2022-09-09T02:25:28;100188.16;;;13.44;100.00
62150;BME280;48134;53.586;10.610;2022-09-09T02:28:13;100177.06;;;13.41;100.00
62150;BME280;48134;53.586;10.610;2022-09-09T02:30:50;100174.31;;;13.41;100.00
62150;BME280;48134;53.586;10.610;2022-09-09T02:33:37;100174.13;;;13.37;100.00
62150;BME280;48134;53.586;10.610;2022-09-09T02:36:12;100177.84;;;13.41;100.00
62150;BME280;48134;53.586;10.610;2022-09-09T02:38:48;100174.72;;;13.34;100.00
62150;BME280;48134;53.586;10.610;2022-09-09T02:41:31;100176.88;;;13.37;100.00
62150;BME280;48134;53.586;10.610;2022-09-09T02:44:01;100165.34;;;13.26;100.00
62150;BME280;48134;53.586;10.610;2022-09-09T02:46:45;100176.47;;;13.30;100.00
62150;BME280;48134;53.586;10.610;2022-09-09T02:49:26;100169.00;;;13.22;100.00
62150;BME280;48134;53.586;10.610;2022-09-09T02:52:01;100175.16;;;13.27;100.00
62150;BME280;48134;53.586;10.610;2022-09-09T02:54:38;100168.38;;;13.25;100.00
62150;BME280;48134;53.586;10.610;2022-09-09T02:57:12;100176.06;;;13.23;100.00
62150;BME280;48134;53.586;10.610;2022-09-09T02:59:48;100167.06;;;13.22;100.00
62150;BME280;48134;53.586;10.610;2022-09-09T03:02:25;100177.38;;;13.25;100.00
62150;BME280;48134;53.586;10.610;2022-09-09T03:05:04;100183.97;;;13.24;100.00
62150;BME280;48134;53.586;10.610;2022-09-09T03:07:33;100173.16;;;13.19;100.00
62150;BME280;48134;53.586;10.610;2022-09-09T03:10:08;100183.97;;;13.24;100.00
62150;BME280;48134;53.586;10.610;2022-09-09T03:12:37;100176.28;;;13.26;100.00
62150;BME280;48134;53.586;10.610;2022-09-09T03:15:11;100174.34;;;13.27;100.00
62150;BME280;48134;53.586;10.610;2022-09-09T03:17:46;100156.09;;;13.14;100.00
62150;BME280;48134;53.586;10.610;2022-09-09T03:20:19;100183.34;;;13.27;100.00
62150;BME280;48134;53.586;10.610;2022-09-09T03:22:53;100188.41;;;13.34;100.00
62150;BME280;48134;53.586;10.610;2022-09-09T03:25:26;100184.97;;;13.29;100.00
62150;BME280;48134;53.586;10.610;2022-09-09T03:28:01;100188.72;;;13.33;100.00
62150;BME280;48134;53.586;10.610;2022-09-09T03:30:34;100185.66;;;13.34;100.00
62150;BME280;48134;53.586;10.610;2022-09-09T03:33:09;100193.34;;;13.32;100.00
62150;BME280;48134;53.586;10.610;2022-09-09T03:35:45;100188.19;;;13.31;100.00
62150;BME280;48134;53.586;10.610;2022-09-09T03:38:20;100188.13;;;13.22;100.00
62150;BME280;48134;53.586;10.610;2022-09-09T03:40:56;100197.94;;;13.23;100.00
62150;BME280;48134;53.586;10.610;2022-09-09T03:43:30;100196.44;;;13.17;100.00
62150;BME280;48134;53.586;10.610;2022-09-09T03:46:04;100194.34;;;13.14;100.00
62150;BME280;48134;53.586;10.610;2022-09-09T03:48:39;100185.94;;;13.10;100.00
62150;BME280;48134;53.586;10.610;2022-09-09T03:51:07;100189.50;;;13.10;100.00
62150;BME280;48134;53.586;10.610;2022-09-09T03:53:40;100185.16;;;13.09;100.00
62150;BME280;48134;53.586;10.610;2022-09-09T03:56:14;100190.50;;;13.15;100.00
62150;BME280;48134;53.586;10.610;2022-09-09T03:58:42;100193.50;;;13.13;100.00
62150;BME280;48134;53.586;10.610;2022-09-09T04:01:16;100191.28;;;13.15;100.00
62150;BME280;48134;53.586;10.610;2022-09-09T04:03:50;100200.03;;;13.03;100.00
62150;BME280;48134;53.586;10.610;2022-09-09T04:06:19;100189.78;;;13.09;100.00
62150;BME280;48134;53.586;10.610;2022-09-09T04:08:53;100204.59;;;13.08;100.00
62150;BME280;48134;53.586;10.610;2022-09-09T04:11:27;100185.94;;;13.10;100.00
62150;BME280;48134;53.586;10.610;2022-09-09T04:14:00;100197.06;;;13.14;100.00
62150;BME280;48134;53.586;10.610;2022-09-09T04:16:34;100202.66;;;13.08;100.00
62150;BME280;48134;53.586;10.610;2022-09-09T04:19:10;100193.81;;;13.12;100.00
62150;BME280;48134;53.586;10.610;2022-09-09T04:21:45;100199.44;;;13.06;100.00
62150;BME280;48134;53.586;10.610;2022-09-09T04:24:22;100207.63;;;13.06;100.00
62150;BME280;48134;53.586;10.610;2022-09-09T04:27:00;100205.69;;;13.07;100.00
62150;BME280;48134;53.586;10.610;2022-09-09T04:29:35;100212.38;;;13.01;100.00
62150;BME280;48134;53.586;10.610;2022-09-09T04:32:08;100217.84;;;13.01;100.00
62150;BME280;48134;53.586;10.610;2022-09-09T04:34:43;100219.06;;;12.95;100.00
62150;BME280;48134;53.586;10.610;2022-09-09T04:37:17;100217.75;;;12.92;100.00
62150;BME280;48134;53.586;10.610;2022-09-09T04:39:50;100217.28;;;12.90;100.00
62150;BME280;48134;53.586;10.610;2022-09-09T04:42:23;100221.13;;;12.89;100.00
62150;BME280;48134;53.586;10.610;2022-09-09T04:44:57;100216.59;;;12.84;100.00
62150;BME280;48134;53.586;10.610;2022-09-09T04:47:25;100223.53;;;12.90;100.00
62150;BME280;48134;53.586;10.610;2022-09-09T04:49:59;100209.88;;;12.90;100.00
62150;BME280;48134;53.586;10.610;2022-09-09T04:52:33;100216.13;;;12.91;100.00
62150;BME280;48134;53.586;10.610;2022-09-09T04:55:08;100223.75;;;12.94;100.00
62150;BME280;48134;53.586;10.610;2022-09-09T04:57:36;100219.06;;;12.95;100.00
62150;BME280;48134;53.586;10.610;2022-09-09T05:00:12;100226.34;;;12.99;100.00
62150;BME280;48134;53.586;10.610;2022-09-09T05:02:46;100220.56;;;13.01;100.00
62150;BME280;48134;53.586;10.610;2022-09-09T05:05:21;100228.28;;;12.99;100.00
62150;BME280;48134;53.586;10.610;2022-09-09T05:07:54;100233.84;;;12.93;100.00
62150;BME280;48134;53.586;10.610;2022-09-09T05:10:22;100227.97;;;13.00;100.00
62150;BME280;48134;53.586;10.610;2022-09-09T05:12:53;100228.47;;;13.02;100.00
62150;BME280;48134;53.586;10.610;2022-09-09T05:15:29;100206.84;;;12.92;100.00
62150;BME280;48134;53.586;10.610;2022-09-09T05:18:03;100231.22;;;13.02;100.00
62150;BME280;48134;53.586;10.610;2022-09-09T05:20:38;100229.16;;;13.08;100.00
62150;BME280;48134;53.586;10.610;2022-09-09T05:23:11;100229.16;;;13.08;100.00
62150;BME280;48134;53.586;10.610;2022-09-09T05:25:54;100232.00;;;13.03;100.00
62150;BME280;48134;53.586;10.610;2022-09-09T05:28:29;100233.63;;;13.04;100.00
62150;BME280;48134;53.586;10.610;2022-09-09T05:30:58;100224.44;;;13.00;100.00
62150;BME280;48134;53.586;10.610;2022-09-09T05:33:34;100234.22;;;13.15;100.00
62150;BME280;48134;53.586;10.610;2022-09-09T05:36:06;100238.06;;;13.14;100.00
62150;BME280;48134;53.586;10.610;2022-09-09T05:38:41;100242.41;;;13.15;100.00
62150;BME280;48134;53.586;10.610;2022-09-09T05:41:16;100236.94;;;13.15;100.00
62150;BME280;48134;53.586;10.610;2022-09-09T05:43:50;100246.44;;;13.17;100.00
62150;BME280;48134;53.586;10.610;2022-09-09T05:46:24;100241.16;;;13.21;100.00
62150;BME280;48134;53.586;10.610;2022-09-09T05:48:57;100249.66;;;13.19;100.00
62150;BME280;48134;53.586;10.610;2022-09-09T05:51:32;100241.88;;;13.13;100.00
62150;BME280;48134;53.586;10.610;2022-09-09T05:54:09;100249.16;;;13.17;100.00
62150;BME280;48134;53.586;10.610;2022-09-09T05:56:42;100249.84;;;13.23;100.00
62150;BME280;48134;53.586;10.610;2022-09-09T05:59:15;100253.50;;;13.18;100.00
62150;BME280;48134;53.586;10.610;2022-09-09T06:01:50;100262.03;;;13.17;100.00
62150;BME280;48134;53.586;10.610;2022-09-09T06:04:29;100262.22;;;13.20;100.00
62150;BME280;48134;53.586;10.610;2022-09-09T06:07:05;100260.56;;;13.33;100.00
62150;BME280;48134;53.586;10.610;2022-09-09T06:09:38;100259.16;;;13.36;100.00
62150;BME280;48134;53.586;10.610;2022-09-09T06:12:12;100265.66;;;13.26;100.00
62150;BME280;48134;53.586;10.610;2022-09-09T06:14:45;100271.50;;;13.33;100.00
62150;BME280;48134;53.586;10.610;2022-09-09T06:17:19;100273.31;;;13.38;100.00
62150;BME280;48134;53.586;10.610;2022-09-09T06:19:52;100278.47;;;13.39;100.00
62150;BME280;48134;53.586;10.610;2022-09-09T06:22:26;100277.38;;;13.40;100.00
62150;BME280;48134;53.586;10.610;2022-09-09T06:25:00;100268.97;;;13.23;100.00
62150;BME280;48134;53.586;10.610;2022-09-09T06:27:33;100278.78;;;13.38;100.00
62150;BME280;48134;53.586;10.610;2022-09-09T06:30:01;100285.06;;;13.38;100.00
62150;BME280;48134;53.586;10.610;2022-09-09T06:32:35;100281.16;;;13.53;100.00
62150;BME280;48134;53.586;10.610;2022-09-09T06:35:05;100280.56;;;13.56;100.00
62150;BME280;48134;53.586;10.610;2022-09-09T06:37:44;100278.69;;;13.66;100.00
62150;BME280;48134;53.586;10.610;2022-09-09T06:40:18;100278.69;;;13.66;100.00
62150;BME280;48134;53.586;10.610;2022-09-09T06:42:52;100277.94;;;13.74;100.00
62150;BME280;48134;53.586;10.610;2022-09-09T06:45:39;100279.13;;;13.82;100.00
62150;BME280;48134;53.586;10.610;2022-09-09T06:48:12;100268.75;;;13.92;100.00
62150;BME280;48134;53.586;10.610;2022-09-09T06:50:45;100278.94;;;13.78;100.00
62150;BME280;48134;53.586;10.610;2022-09-09T06:53:20;100275.41;;;13.77;100.00
62150;BME280;48134;53.586;10.610;2022-09-09T06:55:54;100290.50;;;13.75;100.00
62150;BME280;48134;53.586;10.610;2022-09-09T06:58:28;100276.19;;;13.78;100.00
62150;BME280;48134;53.586;10.610;2022-09-09T07:01:03;100273.41;;;13.69;100.00
62150;BME280;48134;53.586;10.610;2022-09-09T07:03:36;100281.50;;;13.74;100.00
62150;BME280;48134;53.586;10.610;2022-09-09T07:06:14;100274.91;;;13.75;100.00
62150;BME280;48134;53.586;10.610;2022-09-09T07:08:49;100275.97;;;13.88;100.00
62150;BME280;48134;53.586;10.610;2022-09-09T07:11:28;100280.16;;;13.94;100.00
62150;BME280;48134;53.586;10.610;2022-09-09T07:14:02;100284.03;;;13.93;100.00
62150;BME280;48134;53.586;10.610;2022-09-09T07:16:35;100283.56;;;14.00;100.00
62150;BME280;48134;53.586;10.610;2022-09-09T07:19:09;100281.00;;;13.95;100.00
62150;BME280;48134;53.586;10.610;2022-09-09T07:21:44;100285.19;;;14.01;100.00
62150;BME280;48134;53.586;10.610;2022-09-09T07:24:17;100291.00;;;14.00;100.00
62150;BME280;48134;53.586;10.610;2022-09-09T07:26:48;100293.72;;;14.00;100.00
62150;BME280;48134;53.586;10.610;2022-09-09T07:29:17;100298.00;;;13.92;100.00
62150;BME280;48134;53.586;10.610;2022-09-09T07:31:50;100288.69;;;13.93;100.00
62150;BME280;48134;53.586;10.610;2022-09-09T07:34:23;100291.00;;;14.00;100.00
62150;BME280;48134;53.586;10.610;2022-09-09T07:36:51;100292.34;;;14.11;100.00
62150;BME280;48134;53.586;10.610;2022-09-09T07:39:26;100289.75;;;14.06;100.00
62150;BME280;48134;53.586;10.610;2022-09-09T07:41:59;100299.38;;;14.03;100.00
62150;BME280;48134;53.586;10.610;2022-09-09T07:44:35;100297.97;;;14.06;100.00
62150;BME280;48134;53.586;10.610;2022-09-09T07:47:11;100303.72;;;14.04;100.00
62150;BME280;48134;53.586;10.610;2022-09-09T07:49:46;100306.97;;;14.06;100.00
62150;BME280;48134;53.586;10.610;2022-09-09T07:52:26;100302.69;;;14.14;100.00
62150;BME280;48134;53.586;10.610;2022-09-09T07:55:05;100312.22;;;14.25;100.00
62150;BME280;48134;53.586;10.610;2022-09-09T07:57:38;100313.25;;;14.38;100.00
62150;BME280;48134;53.586;10.610;2022-09-09T08:00:13;100310.56;;;14.47;100.00
62150;BME280;48134;53.586;10.610;2022-09-09T08:02:51;100313.50;;;14.59;100.00
62150;BME280;48134;53.586;10.610;2022-09-09T08:05:26;100313.59;;;14.68;100.00
62150;BME280;48134;53.586;10.610;2022-09-09T08:07:59;100312.53;;;14.55;100.00
62150;BME280;48134;53.586;10.610;2022-09-09T08:10:33;100305.13;;;14.56;100.00
62150;BME280;48134;53.586;10.610;2022-09-09T08:13:08;100312.75;;;14.68;100.00
62150;BME280;48134;53.586;10.610;2022-09-09T08:15:41;100311.97;;;14.67;100.00
62150;BME280;48134;53.586;10.610;2022-09-09T08:18:10;100316.13;;;14.65;100.00
62150;BME280;48134;53.586;10.610;2022-09-09T08:20:44;100316.38;;;14.86;100.00
62150;BME280;48134;53.586;10.610;2022-09-09T08:23:12;100322.34;;;14.88;100.00
62150;BME280;48134;53.586;10.610;2022-09-09T08:25:46;100315.31;;;15.04;100.00
62150;BME280;48134;53.586;10.610;2022-09-09T08:28:20;100322.88;;;15.16;100.00
62150;BME280;48134;53.586;10.610;2022-09-09T08:30:53;100326.13;;;15.27;100.00
62150;BME280;48134;53.586;10.610;2022-09-09T08:33:26;100327.16;;;15.40;100.00
62150;BME280;48134;53.586;10.610;2022-09-09T08:35:55;100324.72;;;15.56;100.00
62150;BME280;48134;53.586;10.610;2022-09-09T08:38:23;100311.16;;;15.51;100.00
62150;BME280;48134;53.586;10.610;2022-09-09T08:41:07;100320.34;;;15.55;100.00
62150;BME280;48134;53.586;10.610;2022-09-09T08:43:43;100314.88;;;15.37;100.00
62150;BME280;48134;53.586;10.610;2022-09-09T08:46:24;100326.97;;;15.27;100.00
62150;BME280;48134;53.586;10.610;2022-09-09T08:49:04;100334.41;;;15.36;100.00
62150;BME280;48134;53.586;10.610;2022-09-09T08:51:38;100336.34;;;15.44;100.00
62150;BME280;48134;53.586;10.610;2022-09-09T08:54:12;100334.22;;;15.41;100.00
62150;BME280;48134;53.586;10.610;2022-09-09T08:56:46;100337.94;;;15.45;100.00
62150;BME280;48134;53.586;10.610;2022-09-09T08:59:21;100339.56;;;15.46;100.00
62150;BME280;48134;53.586;10.610;2022-09-09T09:01:56;100330.22;;;15.56;100.00
62150;BME280;48134;53.586;10.610;2022-09-09T09:04:53;100339.09;;;15.53;100.00
62150;BME280;48134;53.586;10.610;2022-09-09T09:07:37;100346.50;;;15.70;100.00
62150;BME280;48134;53.586;10.610;2022-09-09T09:10:21;100352.31;;;15.59;100.00
62150;BME280;48134;53.586;10.610;2022-09-09T09:13:01;100350.56;;;15.63;100.00
62150;BME280;48134;53.586;10.610;2022-09-09T09:15:36;100347.97;;;15.76;100.00
62150;BME280;48134;53.586;10.610;2022-09-09T09:18:10;100350.56;;;15.81;100.00
62150;BME280;48134;53.586;10.610;2022-09-09T09:20:42;100345.38;;;15.71;100.00
62150;BME280;48134;53.586;10.610;2022-09-09T09:23:16;100341.81;;;15.61;100.00
62150;BME280;48134;53.586;10.610;2022-09-09T09:25:56;100342.63;;;15.71;100.00
62150;BME280;48134;53.586;10.610;2022-09-09T09:28:33;100352.50;;;15.72;100.00
62150;BME280;48134;53.586;10.610;2022-09-09T09:31:14;100343.91;;;15.64;100.00
62150;BME280;48134;53.586;10.610;2022-09-09T09:33:48;100338.59;;;15.59;100.00
62150;BME280;48134;53.586;10.610;2022-09-09T09:36:33;100345.53;;;15.57;100.00
62150;BME280;48134;53.586;10.610;2022-09-09T09:39:06;100349.25;;;15.61;100.00
62150;BME280;48134;53.586;10.610;2022-09-09T09:41:41;100349.56;;;15.59;100.00
62150;BME280;48134;53.586;10.610;2022-09-09T09:44:23;100351.03;;;15.65;100.00
62150;BME280;48134;53.586;10.610;2022-09-09T09:47:06;100345.38;;;15.71;100.00
62150;BME280;48134;53.586;10.610;2022-09-09T09:49:34;100356.38;;;15.88;100.00
62150;BME280;48134;53.586;10.610;2022-09-09T09:52:12;100349.91;;;16.10;100.00
62150;BME280;48134;53.586;10.610;2022-09-09T09:54:44;100342.91;;;16.39;100.00
62150;BME280;48134;53.586;10.610;2022-09-09T09:57:18;100342.59;;;16.41;100.00
62150;BME280;48134;53.586;10.610;2022-09-09T10:00:02;100339.34;;;16.39;100.00
62150;BME280;48134;53.586;10.610;2022-09-09T10:02:41;100345.13;;;16.46;100.00
62150;BME280;48134;53.586;10.610;2022-09-09T10:05:20;100348.03;;;16.49;100.00
62150;BME280;48134;53.586;10.610;2022-09-09T10:08:00;100342.34;;;16.63;100.00
62150;BME280;48134;53.586;10.610;2022-09-09T10:10:45;100342.94;;;16.69;100.00
62150;BME280;48134;53.586;10.610;2022-09-09T10:13:18;100343.66;;;16.57;100.00
62150;BME280;48134;53.586;10.610;2022-09-09T10:15:56;100346.53;;;16.61;100.00
62150;BME280;48134;53.586;10.610;2022-09-09T10:18:36;100348.94;;;16.62;100.00
62150;BME280;48134;53.586;10.610;2022-09-09T10:21:10;100347.88;;;16.55;100.00
62150;BME280;48134;53.586;10.610;2022-09-09T10:23:46;100346.19;;;16.71;100.00
62150;BME280;48134;53.586;10.610;2022-09-09T10:26:26;100347.44;;;16.82;100.00
62150;BME280;48134;53.586;10.610;2022-09-09T10:29:19;100337.88;;;16.89;100.00
62150;BME280;48134;53.586;10.610;2022-09-09T10:31:58;100340.59;;;16.97;100.00
62150;BME280;48134;53.586;10.610;2022-09-09T10:34:40;100341.56;;;17.02;100.00
62150;BME280;48134;53.586;10.610;2022-09-09T10:37:19;100332.44;;;17.10;100.00
62150;BME280;48134;53.586;10.610;2022-09-09T10:39:56;100331.91;;;17.16;100.00
62150;BME280;48134;53.586;10.610;2022-09-09T10:42:31;100339.50;;;17.20;100.00
62150;BME280;48134;53.586;10.610;2022-09-09T10:45:08;100329.97;;;17.17;100.00
62150;BME280;48134;53.586;10.610;2022-09-09T10:47:46;100333.84;;;17.16;100.00
62150;BME280;48134;53.586;10.610;2022-09-09T10:50:33;100328.59;;;17.32;100.00
62150;BME280;48134;53.586;10.610;2022-09-09T10:53:08;100332.13;;;17.32;100.00
62150;BME280;48134;53.586;10.610;2022-09-09T10:55:45;100323.63;;;17.25;100.00
62150;BME280;48134;53.586;10.610;2022-09-09T10:58:17;100334.09;;;17.32;100.00
62150;BME280;48134;53.586;10.610;2022-09-09T11:00:56;100327.84;;;17.44;100.00
62150;BME280;48134;53.586;10.610;2022-09-09T11:03:33;100329.13;;;17.46;100.00
62150;BME280;48134;53.586;10.610;2022-09-09T11:06:10;100329.66;;;17.40;100.00
62150;BME280;48134;53.586;10.610;2022-09-09T11:08:40;100326.56;;;17.41;100.00
62150;BME280;48134;53.586;10.610;2022-09-09T11:11:15;100322.22;;;17.61;100.00
62150;BME280;48134;53.586;10.610;2022-09-09T11:13:45;100322.53;;;17.81;100.00
62150;BME280;48134;53.586;10.610;2022-09-09T11:16:24;100320.38;;;17.87;100.00
62150;BME280;48134;53.586;10.610;2022-09-09T11:19:02;100327.09;;;17.98;100.00
62150;BME280;48134;53.586;10.610;2022-09-09T11:21:37;100334.03;;;17.83;100.00
62150;BME280;48134;53.586;10.610;2022-09-09T11:24:10;100328.47;;;17.71;100.00
62150;BME280;48134;53.586;10.610;2022-09-09T11:26:47;100333.69;;;17.63;100.00
62150;BME280;48134;53.586;10.610;2022-09-09T11:29:32;100333.75;;;17.55;100.00
62150;BME280;48134;53.586;10.610;2022-09-09T11:32:08;100333.41;;;17.56;100.00
62150;BME280;48134;53.586;10.610;2022-09-09T11:34:52;100336.72;;;17.71;100.00
62150;BME280;48134;53.586;10.610;2022-09-09T11:37:31;100336.19;;;17.90;100.00
62150;BME280;48134;53.586;10.610;2022-09-09T11:40:08;100335.28;;;18.07;100.00
62150;BME280;48134;53.586;10.610;2022-09-09T11:42:42;100336.59;;;18.22;100.00
62150;BME280;48134;53.586;10.610;2022-09-09T11:45:20;100344.06;;;18.33;100.00
62150;BME280;48134;53.586;10.610;2022-09-09T11:47:55;100336.69;;;18.25;100.00
62150;BME280;48134;53.586;10.610;2022-09-09T11:50:30;100349.72;;;18.37;100.00
62150;BME280;48134;53.586;10.610;2022-09-09T11:53:20;100348.47;;;18.47;100.00
62150;BME280;48134;53.586;10.610;2022-09-09T11:56:00;100340.53;;;18.45;100.00
62150;BME280;48134;53.586;10.610;2022-09-09T11:58:38;100349.06;;;18.52;100.00
62150;BME280;48134;53.586;10.610;2022-09-09T12:03:55;100350.09;;;18.48;100.00
62150;BME280;48134;53.586;10.610;2022-09-09T12:06:30;100341.16;;;18.63;100.00
62150;BME280;48134;53.586;10.610;2022-09-09T12:09:05;100340.81;;;18.77;100.00
62150;BME280;48134;53.586;10.610;2022-09-09T12:11:34;100343.69;;;18.68;100.00
62150;BME280;48134;53.586;10.610;2022-09-09T12:14:18;100349.09;;;18.77;100.00
62150;BME280;48134;53.586;10.610;2022-09-09T12:16:47;100341.03;;;18.84;100.00
62150;BME280;48134;53.586;10.610;2022-09-09T12:19:21;100342.78;;;18.89;100.00
62150;BME280;48134;53.586;10.610;2022-09-09T12:21:54;100341.06;;;18.97;100.00
62150;BME280;48134;53.586;10.610;2022-09-09T12:24:32;100345.06;;;18.87;100.00
62150;BME280;48134;53.586;10.610;2022-09-09T12:27:11;100351.03;;;18.77;100.00
62150;BME280;48134;53.586;10.610;2022-09-09T12:29:50;100349.66;;;18.70;100.00
62150;BME280;48134;53.586;10.610;2022-09-09T12:32:25;100356.53;;;18.52;100.00
62150;BME280;48134;53.586;10.610;2022-09-09T12:35:02;100352.03;;;18.47;100.00
62150;BME280;48134;53.586;10.610;2022-09-09T12:37:38;100343.81;;;18.26;100.00
62150;BME280;48134;53.586;10.610;2022-09-09T12:40:18;100339.06;;;18.14;100.00
62150;BME280;48134;53.586;10.610;2022-09-09T12:42:52;100339.22;;;18.18;100.00
62150;BME280;48134;53.586;10.610;2022-09-09T12:45:26;100335.38;;;18.10;100.00
62150;BME280;48134;53.586;10.610;2022-09-09T12:47:59;100330.38;;;18.12;100.00
62150;BME280;48134;53.586;10.610;2022-09-09T12:50:34;100344.53;;;18.02;100.00
62150;BME280;48134;53.586;10.610;2022-09-09T12:53:06;100342.94;;;18.01;100.00
62150;BME280;48134;53.586;10.610;2022-09-09T12:55:37;100352.22;;;17.96;100.00
62150;BME280;48134;53.586;10.610;2022-09-09T12:58:11;100349.13;;;17.98;100.00
62150;BME280;48134;53.586;10.610;2022-09-09T13:00:48;100345.97;;;17.87;100.00
62150;BME280;48134;53.586;10.610;2022-09-09T13:03:23;100349.13;;;17.77;100.00
62150;BME280;48134;53.586;10.610;2022-09-09T13:05:57;100344.28;;;17.74;100.00
62150;BME280;48134;53.586;10.610;2022-09-09T13:08:33;100348.13;;;17.60;100.00
62150;BME280;48134;53.586;10.610;2022-09-09T13:11:01;100347.16;;;17.56;100.00
62150;BME280;48134;53.586;10.610;2022-09-09T13:13:37;100353.19;;;17.49;100.00
62150;BME280;48134;53.586;10.610;2022-09-09T13:16:06;100346.97;;;17.40;100.00
62150;BME280;48134;53.586;10.610;2022-09-09T13:18:41;100348.78;;;17.36;100.00